sensor_id;sensor_type;location;lat;lon;timestamp;pressure;altitude;pressure_sealevel;temperature;humidity
57248;BME280;55809;46.618;10.764;2023-03-20T00:01:10;93098.72;;;8.76;64.23
57248;BME280;55809;46.618;10.764;2023-03-20T00:03:39;93099.47;;;8.77;64.27
57248;BME280;55809;46.618;10.764;2023-03-20T00:06:13;93091.75;;;8.72;64.17
57248;BME280;55809;46.618;10.764;2023-03-20T00:08:46;93106.38;;;8.81;64.34
57248;BME280;55809;46.618;10.764;2023-03-20T00:11:27;93103.69;;;8.78;65.03
57248;BME280;55809;46.618;10.764;2023-03-20T00:13:58;93102.16;;;8.69;65.44
57248;BME280;55809;46.618;10.764;2023-03-20T00:16:29;93101.75;;;8.67;65.17
57248;BME280;55809;46.618;10.764;2023-03-20T00:19:00;93103.69;;;8.67;64.79
57248;BME280;55809;46.618;10.764;2023-03-20T00:21:28;93107.53;;;8.62;64.81
57248;BME280;55809;46.618;10.764;2023-03-20T00:24:03;93098.66;;;8.55;65.10
57248;BME280;55809;46.618;10.764;2023-03-20T00:26:33;93094.78;;;8.49;65.14
57248;BME280;55809;46.618;10.764;2023-03-20T00:29:05;93100.94;;;8.45;65.37
57248;BME280;55809;46.618;10.764;2023-03-20T00:31:34;93102.84;;;8.41;65.40
57248;BME280;55809;46.618;10.764;2023-03-20T00:34:05;93104.72;;;8.37;65.49
57248;BME280;55809;46.618;10.764;2023-03-20T00:36:32;93107.03;;;8.35;65.48
57248;BME280;55809;46.618;10.764;2023-03-20T00:39:06;93102.03;;;8.34;66.31
57248;BME280;55809;46.618;10.764;2023-03-20T00:41:41;93114.72;;;8.33;65.97
57248;BME280;55809;46.618;10.764;2023-03-20T00:44:19;93109.72;;;8.35;65.69
57248;BME280;55809;46.618;10.764;2023-03-20T00:46:49;93106.25;;;8.35;65.45
57248;BME280;55809;46.618;10.764;2023-03-20T00:49:25;93109.69;;;8.28;65.58
57248;BME280;55809;46.618;10.764;2023-03-20T00:51:53;93100.84;;;8.20;65.96
57248;BME280;55809;46.618;10.764;2023-03-20T00:54:23;93105.81;;;8.22;65.93
57248;BME280;55809;46.618;10.764;2023-03-20T00:56:55;93105.84;;;8.26;66.29
57248;BME280;55809;46.618;10.764;2023-03-20T00:59:26;93102.03;;;8.30;65.90
57248;BME280;55809;46.618;10.764;2023-03-20T01:01:55;93098.94;;;8.28;65.83
57248;BME280;55809;46.618;10.764;2023-03-20T01:04:29;93102.00;;;8.19;66.02
57248;BME280;55809;46.618;10.764;2023-03-20T01:07:00;93101.97;;;8.16;66.23
57248;BME280;55809;46.618;10.764;2023-03-20T01:09:36;93091.59;;;8.14;66.12
57248;BME280;55809;46.618;10.764;2023-03-20T01:12:05;93101.59;;;8.17;66.08
57248;BME280;55809;46.618;10.764;2023-03-20T01:14:34;93103.91;;;8.22;66.40
57248;BME280;55809;46.618;10.764;2023-03-20T01:17:04;93091.25;;;8.23;66.18
57248;BME280;55809;46.618;10.764;2023-03-20T01:19:32;93092.38;;;8.22;65.92
57248;BME280;55809;46.618;10.764;2023-03-20T01:22:02;93093.94;;;8.19;66.74
57248;BME280;55809;46.618;10.764;2023-03-20T01:24:33;93094.28;;;8.18;66.30
57248;BME280;55809;46.618;10.764;2023-03-20T01:27:02;93095.81;;;8.19;66.18
57248;BME280;55809;46.618;10.764;2023-03-20T01:29:31;93095.06;;;8.22;66.33
57248;BME280;55809;46.618;10.764;2023-03-20T01:31:59;93103.13;;;8.22;66.37
57248;BME280;55809;46.618;10.764;2023-03-20T01:34:27;93095.06;;;8.26;65.62
57248;BME280;55809;46.618;10.764;2023-03-20T01:36:56;93094.72;;;8.27;65.08
57248;BME280;55809;46.618;10.764;2023-03-20T01:39:29;93088.94;;;8.32;65.51
57248;BME280;55809;46.618;10.764;2023-03-20T01:42:01;93089.34;;;8.31;64.81
57248;BME280;55809;46.618;10.764;2023-03-20T01:44:33;93084.38;;;8.33;65.38
57248;BME280;55809;46.618;10.764;2023-03-20T01:47:04;93079.75;;;8.26;65.76
57248;BME280;55809;46.618;10.764;2023-03-20T01:52:47;93086.25;;;8.21;65.59
57248;BME280;55809;46.618;10.764;2023-03-20T01:55:19;93080.84;;;8.14;65.95
57248;BME280;55809;46.618;10.764;2023-03-20T01:58:06;93073.50;;;8.04;66.57
57248;BME280;55809;46.618;10.764;2023-03-20T02:00:34;93073.50;;;8.01;67.19
57248;BME280;55809;46.618;10.764;2023-03-20T02:03:07;93055.44;;;7.97;66.47
57248;BME280;55809;46.618;10.764;2023-03-20T02:05:36;93065.44;;;8.08;65.97
57248;BME280;55809;46.618;10.764;2023-03-20T02:08:22;93066.97;;;8.09;66.10
57248;BME280;55809;46.618;10.764;2023-03-20T02:10:52;93065.06;;;8.06;66.36
57248;BME280;55809;46.618;10.764;2023-03-20T02:13:25;93049.28;;;7.93;66.04
57248;BME280;55809;46.618;10.764;2023-03-20T02:15:58;93051.25;;;8.04;65.88
57248;BME280;55809;46.618;10.764;2023-03-20T02:18:26;93058.91;;;8.05;65.93
57248;BME280;55809;46.618;10.764;2023-03-20T02:21:23;93064.28;;;8.02;66.37
57248;BME280;55809;46.618;10.764;2023-03-20T02:24:30;93051.22;;;7.96;66.04
57248;BME280;55809;46.618;10.764;2023-03-20T02:27:08;93026.97;;;7.82;65.95
57248;BME280;55809;46.618;10.764;2023-03-20T02:39:52;93069.59;;;7.84;67.41
57248;BME280;55809;46.618;10.764;2023-03-20T02:42:31;93067.28;;;7.86;66.67
57248;BME280;55809;46.618;10.764;2023-03-20T02:45:08;93061.53;;;7.84;67.08
57248;BME280;55809;46.618;10.764;2023-03-20T02:47:41;93016.03;;;7.46;67.38
57248;BME280;55809;46.618;10.764;2023-03-20T02:50:18;93063.41;;;7.76;67.50
57248;BME280;55809;46.618;10.764;2023-03-20T02:52:57;93064.19;;;7.77;67.77
57248;BME280;55809;46.618;10.764;2023-03-20T02:55:40;93036.06;;;7.60;67.54
57248;BME280;55809;46.618;10.764;2023-03-20T02:58:13;93061.84;;;7.71;67.90
57248;BME280;55809;46.618;10.764;2023-03-20T03:00:47;93066.00;;;7.62;68.68
57248;BME280;55809;46.618;10.764;2023-03-20T03:03:23;93069.44;;;7.59;67.94
57248;BME280;55809;46.618;10.764;2023-03-20T03:06:00;93062.88;;;7.49;68.48
57248;BME280;55809;46.618;10.764;2023-03-20T03:08:38;93067.06;;;7.46;68.59
57248;BME280;55809;46.618;10.764;2023-03-20T03:11:09;93056.66;;;7.34;68.79
57248;BME280;55809;46.618;10.764;2023-03-20T03:13:41;93071.25;;;7.40;68.34
57248;BME280;55809;46.618;10.764;2023-03-20T03:16:17;93073.25;;;7.50;68.43
57248;BME280;55809;46.618;10.764;2023-03-20T03:18:45;93070.16;;;7.45;68.61
57248;BME280;55809;46.618;10.764;2023-03-20T03:21:17;93064.78;;;7.45;68.36
57248;BME280;55809;46.618;10.764;2023-03-20T03:23:47;93073.25;;;7.47;68.43
57248;BME280;55809;46.618;10.764;2023-03-20T03:26:24;93061.66;;;7.39;68.79
57248;BME280;55809;46.618;10.764;2023-03-20T03:28:56;93065.47;;;7.35;69.13
57248;BME280;55809;46.618;10.764;2023-03-20T03:31:26;93064.59;;;7.20;68.96
57248;BME280;55809;46.618;10.764;2023-03-20T03:33:58;93061.88;;;7.13;68.76
57248;BME280;55809;46.618;10.764;2023-03-20T03:36:35;93060.72;;;7.14;68.73
57248;BME280;55809;46.618;10.764;2023-03-20T03:39:12;93063.47;;;7.17;68.85
57248;BME280;55809;46.618;10.764;2023-03-20T03:41:51;93059.97;;;7.17;68.85
57248;BME280;55809;46.618;10.764;2023-03-20T03:44:25;93064.59;;;7.16;68.15
57248;BME280;55809;46.618;10.764;2023-03-20T03:46:56;93069.91;;;7.09;68.21
57248;BME280;55809;46.618;10.764;2023-03-20T03:49:29;93074.75;;;6.93;68.23
57248;BME280;55809;46.618;10.764;2023-03-20T03:52:04;93068.47;;;6.74;69.15
57248;BME280;55809;46.618;10.764;2023-03-20T03:54:41;93064.56;;;6.65;69.25
57248;BME280;55809;46.618;10.764;2023-03-20T03:57:20;93077.16;;;6.61;68.87
57248;BME280;55809;46.618;10.764;2023-03-20T03:59:51;93077.34;;;6.41;69.54
57248;BME280;55809;46.618;10.764;2023-03-20T04:02:22;93069.66;;;6.36;70.35
57248;BME280;55809;46.618;10.764;2023-03-20T04:04:52;93069.22;;;6.30;71.04
57248;BME280;55809;46.618;10.764;2023-03-20T04:07:22;93074.56;;;6.30;71.18
57248;BME280;55809;46.618;10.764;2023-03-20T04:09:52;93066.22;;;6.36;70.48
57248;BME280;55809;46.618;10.764;2023-03-20T04:12:32;93024.97;;;6.10;70.32
57248;BME280;55809;46.618;10.764;2023-03-20T04:15:04;93061.66;;;6.40;70.05
57248;BME280;55809;46.618;10.764;2023-03-20T04:17:33;93068.03;;;6.28;70.17
57248;BME280;55809;46.618;10.764;2023-03-20T04:20:02;93063.31;;;6.18;70.19
57248;BME280;55809;46.618;10.764;2023-03-20T04:22:31;93060.56;;;6.10;70.48
57248;BME280;55809;46.618;10.764;2023-03-20T04:25:00;93060.13;;;6.05;70.84
57248;BME280;55809;46.618;10.764;2023-03-20T04:27:31;93069.31;;;6.04;70.72
57248;BME280;55809;46.618;10.764;2023-03-20T04:29:59;93060.91;;;6.05;70.13
57248;BME280;55809;46.618;10.764;2023-03-20T04:32:27;93067.88;;;6.14;69.84
57248;BME280;55809;46.618;10.764;2023-03-20T04:34:55;93062.03;;;6.04;70.51
57248;BME280;55809;46.618;10.764;2023-03-20T04:37:23;93065.94;;;6.10;70.19
57248;BME280;55809;46.618;10.764;2023-03-20T04:39:52;93059.09;;;6.13;70.04
57248;BME280;55809;46.618;10.764;2023-03-20T04:42:20;93051.00;;;6.09;70.32
57248;BME280;55809;46.618;10.764;2023-03-20T04:44:54;93060.22;;;6.12;70.76
57248;BME280;55809;46.618;10.764;2023-03-20T04:47:20;93060.09;;;6.01;70.33
57248;BME280;55809;46.618;10.764;2023-03-20T04:49:47;93065.47;;;6.05;70.33
57248;BME280;55809;46.618;10.764;2023-03-20T04:52:14;93065.06;;;5.99;70.34
57248;BME280;55809;46.618;10.764;2023-03-20T04:54:42;93076.34;;;6.16;70.09
57248;BME280;55809;46.618;10.764;2023-03-20T04:57:11;93082.47;;;6.16;70.24
57248;BME280;55809;46.618;10.764;2023-03-20T04:59:43;93087.41;;;6.14;69.59
57248;BME280;55809;46.618;10.764;2023-03-20T05:02:27;93060.31;;;5.89;69.96
57248;BME280;55809;46.618;10.764;2023-03-20T05:04:55;93082.88;;;5.88;70.73
57248;BME280;55809;46.618;10.764;2023-03-20T05:07:23;93077.00;;;5.79;70.71
57248;BME280;55809;46.618;10.764;2023-03-20T05:09:52;93074.88;;;5.61;71.60
57248;BME280;55809;46.618;10.764;2023-03-20T05:12:22;93077.19;;;5.59;71.84
57248;BME280;55809;46.618;10.764;2023-03-20T05:14:53;93082.75;;;5.47;72.98
57248;BME280;55809;46.618;10.764;2023-03-20T05:17:21;93084.69;;;5.50;73.33
57248;BME280;55809;46.618;10.764;2023-03-20T05:19:51;93087.38;;;5.50;73.01
57248;BME280;55809;46.618;10.764;2023-03-20T05:22:19;93081.78;;;5.62;74.02
57248;BME280;55809;46.618;10.764;2023-03-20T05:24:50;93086.28;;;5.55;73.54
57248;BME280;55809;46.618;10.764;2023-03-20T05:27:19;93086.69;;;5.57;73.71
57248;BME280;55809;46.618;10.764;2023-03-20T05:29:47;93088.66;;;5.60;73.95
57248;BME280;55809;46.618;10.764;2023-03-20T05:32:16;93089.72;;;5.55;74.23
57248;BME280;55809;46.618;10.764;2023-03-20T05:34:43;93088.28;;;5.61;75.01
57248;BME280;55809;46.618;10.764;2023-03-20T05:37:16;93086.66;;;5.53;75.15
57248;BME280;55809;46.618;10.764;2023-03-20T05:39:47;93091.25;;;5.53;75.42
57248;BME280;55809;46.618;10.764;2023-03-20T05:42:15;93087.94;;;5.63;73.98
57248;BME280;55809;46.618;10.764;2023-03-20T05:44:45;93086.56;;;5.76;73.47
57248;BME280;55809;46.618;10.764;2023-03-20T05:47:13;93090.50;;;5.86;73.53
57248;BME280;55809;46.618;10.764;2023-03-20T05:49:41;93061.91;;;5.63;72.48
57248;BME280;55809;46.618;10.764;2023-03-20T05:52:10;93062.31;;;5.65;72.24
57248;BME280;55809;46.618;10.764;2023-03-20T05:54:40;93098.66;;;5.93;71.80
57248;BME280;55809;46.618;10.764;2023-03-20T05:57:08;93104.94;;;6.08;71.37
57248;BME280;55809;46.618;10.764;2023-03-20T05:59:36;93099.00;;;7.03;68.26
57248;BME280;55809;46.618;10.764;2023-03-20T06:02:04;93092.97;;;7.80;64.66
57248;BME280;55809;46.618;10.764;2023-03-20T06:04:32;93095.53;;;8.38;62.91
57248;BME280;55809;46.618;10.764;2023-03-20T06:07:03;93100.59;;;8.61;61.56
57248;BME280;55809;46.618;10.764;2023-03-20T06:09:32;93108.47;;;8.08;63.27
57248;BME280;55809;46.618;10.764;2023-03-20T06:12:02;93108.41;;;7.97;64.16
57248;BME280;55809;46.618;10.764;2023-03-20T06:14:30;93101.69;;;8.39;63.17
57248;BME280;55809;46.618;10.764;2023-03-20T06:16:57;93106.38;;;8.74;62.29
57248;BME280;55809;46.618;10.764;2023-03-20T06:19:26;93107.47;;;8.52;62.68
57248;BME280;55809;46.618;10.764;2023-03-20T06:21:54;93102.84;;;8.41;62.79
57248;BME280;55809;46.618;10.764;2023-03-20T06:24:25;93109.50;;;8.90;61.59
57248;BME280;55809;46.618;10.764;2023-03-20T06:26:53;93111.81;;;9.17;60.81
57248;BME280;55809;46.618;10.764;2023-03-20T06:29:26;93106.81;;;9.01;60.94
57248;BME280;55809;46.618;10.764;2023-03-20T06:31:53;93119.09;;;8.88;61.18
57248;BME280;55809;46.618;10.764;2023-03-20T06:34:24;93112.19;;;8.90;61.41
57248;BME280;55809;46.618;10.764;2023-03-20T06:36:55;93111.81;;;9.17;60.41
57248;BME280;55809;46.618;10.764;2023-03-20T06:39:23;93109.13;;;9.03;60.53
57248;BME280;55809;46.618;10.764;2023-03-20T06:41:54;93106.81;;;9.08;60.79
57248;BME280;55809;46.618;10.764;2023-03-20T06:44:30;93114.50;;;8.92;61.48
57248;BME280;55809;46.618;10.764;2023-03-20T06:47:00;93109.47;;;8.80;62.06
57248;BME280;55809;46.618;10.764;2023-03-20T06:49:35;93114.44;;;8.56;62.69
57248;BME280;55809;46.618;10.764;2023-03-20T06:52:06;93112.09;;;8.48;63.45
57248;BME280;55809;46.618;10.764;2023-03-20T06:54:42;93120.53;;;8.42;63.26
57248;BME280;55809;46.618;10.764;2023-03-20T06:57:10;93096.66;;;8.30;63.17
57248;BME280;55809;46.618;10.764;2023-03-20T06:59:40;93121.31;;;8.43;63.04
57248;BME280;55809;46.618;10.764;2023-03-20T07:02:09;93104.72;;;8.37;62.74
57248;BME280;55809;46.618;10.764;2023-03-20T07:04:38;93113.63;;;8.45;63.32
57248;BME280;55809;46.618;10.764;2023-03-20T07:07:06;93118.28;;;8.62;63.13
57248;BME280;55809;46.618;10.764;2023-03-20T07:09:35;93117.91;;;8.71;63.04
57248;BME280;55809;46.618;10.764;2023-03-20T07:12:11;93123.28;;;8.71;62.86
57248;BME280;55809;46.618;10.764;2023-03-20T07:14:42;93117.91;;;8.78;62.35
57248;BME280;55809;46.618;10.764;2023-03-20T07:17:11;93121.41;;;8.89;61.33
57248;BME280;55809;46.618;10.764;2023-03-20T07:19:39;93120.25;;;9.01;60.85
57248;BME280;55809;46.618;10.764;2023-03-20T07:22:21;93129.13;;;9.16;59.83
57248;BME280;55809;46.618;10.764;2023-03-20T07:24:49;93111.41;;;8.97;61.11
57248;BME280;55809;46.618;10.764;2023-03-20T07:27:17;93126.84;;;9.18;61.55
57248;BME280;55809;46.618;10.764;2023-03-20T07:29:49;93133.34;;;9.13;61.78
57248;BME280;55809;46.618;10.764;2023-03-20T07:32:18;93136.06;;;9.10;61.99
57248;BME280;55809;46.618;10.764;2023-03-20T07:34:46;93135.28;;;9.13;62.22
57248;BME280;55809;46.618;10.764;2023-03-20T07:37:15;93127.19;;;9.20;61.58
57248;BME280;55809;46.618;10.764;2023-03-20T07:39:46;93140.28;;;9.36;61.45
57248;BME280;55809;46.618;10.764;2023-03-20T07:42:14;93130.28;;;9.54;60.63
57248;BME280;55809;46.618;10.764;2023-03-20T07:44:43;93137.59;;;9.65;60.22
57248;BME280;55809;46.618;10.764;2023-03-20T07:47:19;93123.34;;;9.75;58.54
57248;BME280;55809;46.618;10.764;2023-03-20T07:49:50;93130.66;;;9.74;58.79
57248;BME280;55809;46.618;10.764;2023-03-20T07:52:18;93125.25;;;9.74;59.41
57248;BME280;55809;46.618;10.764;2023-03-20T07:54:46;93121.00;;;9.80;59.16
57248;BME280;55809;46.618;10.764;2023-03-20T07:57:14;93123.28;;;9.89;58.99
57248;BME280;55809;46.618;10.764;2023-03-20T07:59:44;93131.34;;;10.00;58.57
57248;BME280;55809;46.618;10.764;2023-03-20T08:02:15;93116.69;;;10.12;58.20
57248;BME280;55809;46.618;10.764;2023-03-20T08:04:44;93124.38;;;10.20;57.71
57248;BME280;55809;46.618;10.764;2023-03-20T08:07:15;93112.00;;;10.37;56.90
57248;BME280;55809;46.618;10.764;2023-03-20T08:09:50;93108.47;;;10.51;55.96
57248;BME280;55809;46.618;10.764;2023-03-20T08:12:18;93111.09;;;10.62;55.14
57248;BME280;55809;46.618;10.764;2023-03-20T08:14:46;93112.25;;;10.64;55.20
57248;BME280;55809;46.618;10.764;2023-03-20T08:17:30;93106.00;;;10.78;54.81
57248;BME280;55809;46.618;10.764;2023-03-20T08:20:00;93106.28;;;10.94;54.21
57248;BME280;55809;46.618;10.764;2023-03-20T08:22:29;93101.97;;;11.04;53.30
57248;BME280;55809;46.618;10.764;2023-03-20T08:24:57;93113.47;;;11.19;52.93
57248;BME280;55809;46.618;10.764;2023-03-20T08:27:25;93096.34;;;11.36;52.28
57248;BME280;55809;46.618;10.764;2023-03-20T08:29:53;93094.16;;;11.65;51.87
57248;BME280;55809;46.618;10.764;2023-03-20T08:32:34;93091.81;;;11.67;52.14
57248;BME280;55809;46.618;10.764;2023-03-20T08:35:06;93080.56;;;11.72;52.00
57248;BME280;55809;46.618;10.764;2023-03-20T08:37:35;93080.75;;;12.61;50.37
57248;BME280;55809;46.618;10.764;2023-03-20T08:40:04;93075.03;;;13.36;48.66
57248;BME280;55809;46.618;10.764;2023-03-20T08:42:32;93059.66;;;13.97;47.43
57248;BME280;55809;46.618;10.764;2023-03-20T08:45:00;93067.56;;;14.47;45.93
57248;BME280;55809;46.618;10.764;2023-03-20T08:47:30;93066.56;;;14.97;45.18
57248;BME280;55809;46.618;10.764;2023-03-20T08:49:58;93070.84;;;15.47;43.77
57248;BME280;55809;46.618;10.764;2023-03-20T08:52:26;93066.22;;;15.61;43.35
57248;BME280;55809;46.618;10.764;2023-03-20T08:54:54;93067.22;;;16.00;42.20
57248;BME280;55809;46.618;10.764;2023-03-20T08:57:22;93065.13;;;16.20;41.08
57248;BME280;55809;46.618;10.764;2023-03-20T08:59:50;93062.22;;;16.40;40.48
57248;BME280;55809;46.618;10.764;2023-03-20T09:02:18;93060.00;;;16.64;40.55
57248;BME280;55809;46.618;10.764;2023-03-20T09:04:48;93060.00;;;16.64;40.55
57248;BME280;55809;46.618;10.764;2023-03-20T09:07:16;93040.88;;;17.06;39.20
57248;BME280;55809;46.618;10.764;2023-03-20T09:09:48;64767.38;;;-145.41;100.00
57248;BME280;55809;46.618;10.764;2023-03-20T09:12:17;64767.38;;;-145.41;100.00
57248;BME280;55809;46.618;10.764;2023-03-20T09:14:45;64767.38;;;-145.41;100.00
57248;BME280;55809;46.618;10.764;2023-03-20T09:17:13;64767.38;;;-145.41;100.00
57248;BME280;55809;46.618;10.764;2023-03-20T09:19:41;64767.38;;;-145.41;100.00
57248;BME280;55809;46.618;10.764;2023-03-20T09:22:12;64767.38;;;-145.41;100.00
57248;BME280;55809;46.618;10.764;2023-03-20T09:24:43;64767.38;;;-145.41;100.00
57248;BME280;55809;46.618;10.764;2023-03-20T09:27:10;93031.94;;;18.13;34.91
57248;BME280;55809;46.618;10.764;2023-03-20T09:29:39;93027.28;;;18.45;34.62
57248;BME280;55809;46.618;10.764;2023-03-20T09:32:10;93026.41;;;18.26;34.29
57248;BME280;55809;46.618;10.764;2023-03-20T09:34:39;93018.22;;;18.04;35.77
57248;BME280;55809;46.618;10.764;2023-03-20T09:37:07;92994.44;;;17.92;36.21
57248;BME280;55809;46.618;10.764;2023-03-20T09:39:39;93012.72;;;18.26;36.74
57248;BME280;55809;46.618;10.764;2023-03-20T09:42:15;93007.13;;;17.86;36.35
57248;BME280;55809;46.618;10.764;2023-03-20T09:44:53;93000.69;;;17.79;37.11
57248;BME280;55809;46.618;10.764;2023-03-20T09:47:32;92999.50;;;17.80;36.27
57248;BME280;55809;46.618;10.764;2023-03-20T09:50:16;92990.00;;;18.07;35.26
57248;BME280;55809;46.618;10.764;2023-03-20T09:52:54;92994.88;;;18.34;34.29
57248;BME280;55809;46.618;10.764;2023-03-20T09:55:32;92989.34;;;18.47;34.56
57248;BME280;55809;46.618;10.764;2023-03-20T09:58:05;92982.78;;;18.66;34.13
57248;BME280;55809;46.618;10.764;2023-03-20T10:00:39;92975.13;;;18.83;34.45
57248;BME280;55809;46.618;10.764;2023-03-20T10:03:16;92973.97;;;18.71;32.65
57248;BME280;55809;46.618;10.764;2023-03-20T10:05:49;92972.03;;;18.72;33.42
57248;BME280;55809;46.618;10.764;2023-03-20T10:08:20;92958.88;;;18.58;33.75
57248;BME280;55809;46.618;10.764;2023-03-20T10:10:59;92963.44;;;18.83;33.60
57248;BME280;55809;46.618;10.764;2023-03-20T10:13:52;92960.03;;;19.19;32.39
57248;BME280;55809;46.618;10.764;2023-03-20T10:16:35;64767.38;;;-145.41;100.00
57248;BME280;55809;46.618;10.764;2023-03-20T10:19:11;64767.38;;;-145.41;100.00
57248;BME280;55809;46.618;10.764;2023-03-20T10:21:46;64767.38;;;-145.41;100.00
57248;BME280;55809;46.618;10.764;2023-03-20T10:24:18;64767.38;;;-145.41;100.00
57248;BME280;55809;46.618;10.764;2023-03-20T10:26:54;64767.38;;;-145.41;100.00
57248;BME280;55809;46.618;10.764;2023-03-20T10:29:53;64767.38;;;-145.41;100.00
57248;BME280;55809;46.618;10.764;2023-03-20T10:32:35;64767.38;;;-145.41;100.00
57248;BME280;55809;46.618;10.764;2023-03-20T10:35:20;64767.38;;;-145.41;100.00
57248;BME280;55809;46.618;10.764;2023-03-20T10:38:04;64767.38;;;-145.41;100.00
57248;BME280;55809;46.618;10.764;2023-03-20T10:40:40;64767.38;;;-145.41;100.00
57248;BME280;55809;46.618;10.764;2023-03-20T10:43:25;64767.38;;;-145.41;100.00
57248;BME280;55809;46.618;10.764;2023-03-20T10:45:59;64767.38;;;-145.41;100.00
57248;BME280;55809;46.618;10.764;2023-03-20T10:48:32;64767.38;;;-145.41;100.00
57248;BME280;55809;46.618;10.764;2023-03-20T10:51:11;64767.38;;;-145.41;100.00
57248;BME280;55809;46.618;10.764;2023-03-20T10:53:44;64767.38;;;-145.41;100.00
57248;BME280;55809;46.618;10.764;2023-03-20T10:56:19;64767.38;;;-145.41;100.00
57248;BME280;55809;46.618;10.764;2023-03-20T10:58:57;64767.38;;;-145.41;100.00
57248;BME280;55809;46.618;10.764;2023-03-20T11:01:26;64767.38;;;-145.41;100.00
57248;BME280;55809;46.618;10.764;2023-03-20T11:03:54;64767.38;;;-145.41;100.00
57248;BME280;55809;46.618;10.764;2023-03-20T11:06:24;64767.38;;;-145.41;100.00
57248;BME280;55809;46.618;10.764;2023-03-20T11:08:55;64767.38;;;-145.41;100.00
57248;BME280;55809;46.618;10.764;2023-03-20T11:11:25;64767.38;;;-145.41;100.00
57248;BME280;55809;46.618;10.764;2023-03-20T11:14:09;64767.38;;;-145.41;100.00
57248;BME280;55809;46.618;10.764;2023-03-20T11:16:47;64767.38;;;-145.41;100.00
57248;BME280;55809;46.618;10.764;2023-03-20T11:19:19;64767.38;;;-145.41;100.00
57248;BME280;55809;46.618;10.764;2023-03-20T11:21:49;64767.38;;;-145.41;100.00
57248;BME280;55809;46.618;10.764;2023-03-20T11:24:25;64767.38;;;-145.41;100.00
57248;BME280;55809;46.618;10.764;2023-03-20T11:27:04;64767.38;;;-145.41;100.00
57248;BME280;55809;46.618;10.764;2023-03-20T11:29:40;64767.38;;;-145.41;100.00
57248;BME280;55809;46.618;10.764;2023-03-20T11:32:18;64767.38;;;-145.41;100.00
57248;BME280;55809;46.618;10.764;2023-03-20T11:34:48;64767.38;;;-145.41;100.00
57248;BME280;55809;46.618;10.764;2023-03-20T11:37:27;64767.38;;;-145.41;100.00
57248;BME280;55809;46.618;10.764;2023-03-20T11:40:12;64767.38;;;-145.41;100.00
57248;BME280;55809;46.618;10.764;2023-03-20T11:42:53;92843.78;;;16.20;32.52
57248;BME280;55809;46.618;10.764;2023-03-20T11:45:24;92848.53;;;16.28;32.38
57248;BME280;55809;46.618;10.764;2023-03-20T11:47:55;92855.31;;;16.11;32.47
57248;BME280;55809;46.618;10.764;2023-03-20T11:50:31;92855.75;;;15.97;33.33
57248;BME280;55809;46.618;10.764;2023-03-20T11:53:01;92852.44;;;15.89;33.47
57248;BME280;55809;46.618;10.764;2023-03-20T11:55:31;92858.75;;;15.86;31.81
57248;BME280;55809;46.618;10.764;2023-03-20T11:58:02;92862.56;;;15.88;33.02
57248;BME280;55809;46.618;10.764;2023-03-20T12:00:38;92851.38;;;15.86;32.92
57248;BME280;55809;46.618;10.764;2023-03-20T12:06:25;92842.88;;;15.84;33.27
57248;BME280;55809;46.618;10.764;2023-03-20T12:08:56;92841.00;;;15.81;32.25
57248;BME280;55809;46.618;10.764;2023-03-20T12:11:42;92840.47;;;15.74;32.73
57248;BME280;55809;46.618;10.764;2023-03-20T12:14:20;92833.00;;;15.61;33.69
57248;BME280;55809;46.618;10.764;2023-03-20T12:16:58;92837.44;;;15.55;32.89
57248;BME280;55809;46.618;10.764;2023-03-20T12:19:29;92828.41;;;15.45;33.50
57248;BME280;55809;46.618;10.764;2023-03-20T12:22:00;92828.94;;;15.40;32.60
57248;BME280;55809;46.618;10.764;2023-03-20T12:24:36;92829.03;;;15.37;33.44
57248;BME280;55809;46.618;10.764;2023-03-20T12:27:19;92820.09;;;15.23;33.70
57248;BME280;55809;46.618;10.764;2023-03-20T12:29:53;92817.13;;;15.18;34.79
57248;BME280;55809;46.618;10.764;2023-03-20T12:32:35;92821.91;;;15.14;33.95
57248;BME280;55809;46.618;10.764;2023-03-20T12:35:10;92806.88;;;15.51;33.78
57248;BME280;55809;46.618;10.764;2023-03-20T12:37:39;92810.22;;;15.97;33.02
57248;BME280;55809;46.618;10.764;2023-03-20T12:40:12;92815.09;;;16.28;32.50
57248;BME280;55809;46.618;10.764;2023-03-20T12:42:52;92804.50;;;16.55;32.45
57248;BME280;55809;46.618;10.764;2023-03-20T12:45:24;92784.03;;;16.51;32.28
57248;BME280;55809;46.618;10.764;2023-03-20T12:48:04;92787.81;;;16.66;31.64
57248;BME280;55809;46.618;10.764;2023-03-20T12:50:34;92800.09;;;16.83;32.31
57248;BME280;55809;46.618;10.764;2023-03-20T12:56:07;92804.47;;;16.81;31.94
57248;BME280;55809;46.618;10.764;2023-03-20T12:58:43;92806.44;;;16.68;32.44
57248;BME280;55809;46.618;10.764;2023-03-20T13:01:15;92787.31;;;16.46;32.54
57248;BME280;55809;46.618;10.764;2023-03-20T13:06:55;92771.97;;;16.39;32.63
57248;BME280;55809;46.618;10.764;2023-03-20T13:09:54;92796.84;;;16.63;33.32
57248;BME280;55809;46.618;10.764;2023-03-20T13:12:33;92799.47;;;16.79;33.63
57248;BME280;55809;46.618;10.764;2023-03-20T13:15:10;92781.66;;;16.87;33.01
57248;BME280;55809;46.618;10.764;2023-03-20T13:17:45;92788.53;;;16.92;32.51
57248;BME280;55809;46.618;10.764;2023-03-20T13:20:20;92752.59;;;16.72;32.71
57248;BME280;55809;46.618;10.764;2023-03-20T13:23:01;92789.69;;;16.91;32.65
57248;BME280;55809;46.618;10.764;2023-03-20T13:25:40;92785.34;;;16.94;31.27
57248;BME280;55809;46.618;10.764;2023-03-20T13:28:15;92788.06;;;16.94;31.51
57248;BME280;55809;46.618;10.764;2023-03-20T13:30:52;92784.78;;;16.99;32.93
57248;BME280;55809;46.618;10.764;2023-03-20T13:33:34;92794.00;;;16.79;33.71
57248;BME280;55809;46.618;10.764;2023-03-20T13:36:07;92781.59;;;16.65;33.99
57248;BME280;55809;46.618;10.764;2023-03-20T13:38:42;92779.66;;;16.53;35.01
57248;BME280;55809;46.618;10.764;2023-03-20T13:41:12;92790.22;;;16.51;35.09
57248;BME280;55809;46.618;10.764;2023-03-20T13:43:42;92790.16;;;16.29;34.98